sensor_id;sensor_type;location;lat;lon;timestamp;P1;durP1;ratioP1;P2;durP2;ratioP2
53052;SDS011;38934;52.690;6.184;2023-06-24T00:00:56;8.13;;;6.45;;
53052;SDS011;38934;52.690;6.184;2023-06-24T00:03:22;9.20;;;7.38;;
53052;SDS011;38934;52.690;6.184;2023-06-24T00:05:47;8.25;;;7.30;;
53052;SDS011;38934;52.690;6.184;2023-06-24T00:08:18;11.15;;;7.85;;
53052;SDS011;38934;52.690;6.184;2023-06-24T00:10:46;10.43;;;7.90;;
53052;SDS011;38934;52.690;6.184;2023-06-24T00:13:12;11.80;;;8.50;;
53052;SDS011;38934;52.690;6.184;2023-06-24T00:15:39;11.38;;;8.13;;
53052;SDS011;38934;52.690;6.184;2023-06-24T00:18:10;13.30;;;8.77;;
53052;SDS011;38934;52.690;6.184;2023-06-24T00:20:37;9.57;;;8.27;;
53052;SDS011;38934;52.690;6.184;2023-06-24T00:23:03;13.32;;;8.93;;
53052;SDS011;38934;52.690;6.184;2023-06-24T00:25:31;9.27;;;8.15;;
53052;SDS011;38934;52.690;6.184;2023-06-24T00:27:57;9.82;;;7.70;;
53052;SDS011;38934;52.690;6.184;2023-06-24T00:30:22;10.85;;;9.00;;
53052;SDS011;38934;52.690;6.184;2023-06-24T00:32:48;11.73;;;9.57;;
53052;SDS011;38934;52.690;6.184;2023-06-24T00:35:14;13.80;;;9.10;;
53052;SDS011;38934;52.690;6.184;2023-06-24T00:37:40;12.85;;;10.45;;
53052;SDS011;38934;52.690;6.184;2023-06-24T00:40:08;11.07;;;8.80;;
53052;SDS011;38934;52.690;6.184;2023-06-24T00:42:35;11.00;;;8.98;;
53052;SDS011;38934;52.690;6.184;2023-06-24T00:45:02;10.35;;;8.70;;
53052;SDS011;38934;52.690;6.184;2023-06-24T00:47:30;10.90;;;9.18;;
53052;SDS011;38934;52.690;6.184;2023-06-24T00:49:56;10.15;;;8.98;;
53052;SDS011;38934;52.690;6.184;2023-06-24T00:52:22;10.95;;;9.00;;
53052;SDS011;38934;52.690;6.184;2023-06-24T00:54:49;9.27;;;8.05;;
53052;SDS011;38934;52.690;6.184;2023-06-24T00:57:14;10.90;;;8.05;;
53052;SDS011;38934;52.690;6.184;2023-06-24T00:59:42;9.55;;;8.45;;
53052;SDS011;38934;52.690;6.184;2023-06-24T01:02:11;11.05;;;8.10;;
53052;SDS011;38934;52.690;6.184;2023-06-24T01:04:37;12.70;;;8.55;;
53052;SDS011;38934;52.690;6.184;2023-06-24T01:07:03;10.10;;;8.00;;
53052;SDS011;38934;52.690;6.184;2023-06-24T01:09:30;8.10;;;6.95;;
53052;SDS011;38934;52.690;6.184;2023-06-24T01:11:56;10.38;;;8.05;;
53052;SDS011;38934;52.690;6.184;2023-06-24T01:14:22;10.80;;;8.90;;
53052;SDS011;38934;52.690;6.184;2023-06-24T01:19:54;10.77;;;8.77;;
53052;SDS011;38934;52.690;6.184;2023-06-24T01:23:16;9.98;;;8.48;;
53052;SDS011;38934;52.690;6.184;2023-06-24T01:34:01;14.70;;;10.20;;
53052;SDS011;38934;52.690;6.184;2023-06-24T01:39:38;12.68;;;9.98;;
53052;SDS011;38934;52.690;6.184;2023-06-24T01:42:11;12.73;;;10.30;;
53052;SDS011;38934;52.690;6.184;2023-06-24T01:44:40;11.85;;;9.63;;
53052;SDS011;38934;52.690;6.184;2023-06-24T01:47:08;11.93;;;10.50;;
53052;SDS011;38934;52.690;6.184;2023-06-24T01:49:37;12.15;;;10.07;;
53052;SDS011;38934;52.690;6.184;2023-06-24T01:52:05;14.88;;;10.30;;
53052;SDS011;38934;52.690;6.184;2023-06-24T01:54:35;12.50;;;10.30;;
53052;SDS011;38934;52.690;6.184;2023-06-24T01:57:02;12.73;;;10.43;;
53052;SDS011;38934;52.690;6.184;2023-06-24T01:59:30;10.77;;;8.70;;
53052;SDS011;38934;52.690;6.184;2023-06-24T02:01:57;12.05;;;10.27;;
53052;SDS011;38934;52.690;6.184;2023-06-24T02:04:23;13.93;;;11.13;;
53052;SDS011;38934;52.690;6.184;2023-06-24T02:06:50;12.15;;;10.48;;
53052;SDS011;38934;52.690;6.184;2023-06-24T02:09:19;13.00;;;10.52;;
53052;SDS011;38934;52.690;6.184;2023-06-24T02:11:45;12.25;;;10.10;;
53052;SDS011;38934;52.690;6.184;2023-06-24T02:14:11;13.43;;;10.90;;
53052;SDS011;38934;52.690;6.184;2023-06-24T02:16:39;15.85;;;11.93;;
53052;SDS011;38934;52.690;6.184;2023-06-24T02:19:07;14.05;;;12.18;;
53052;SDS011;38934;52.690;6.184;2023-06-24T02:21:34;15.30;;;11.65;;
53052;SDS011;38934;52.690;6.184;2023-06-24T02:24:01;15.93;;;12.75;;
53052;SDS011;38934;52.690;6.184;2023-06-24T02:26:27;16.15;;;12.50;;
53052;SDS011;38934;52.690;6.184;2023-06-24T02:28:53;15.82;;;11.50;;
53052;SDS011;38934;52.690;6.184;2023-06-24T02:31:20;16.50;;;12.02;;
53052;SDS011;38934;52.690;6.184;2023-06-24T02:33:46;17.17;;;13.60;;
53052;SDS011;38934;52.690;6.184;2023-06-24T02:36:12;15.90;;;12.55;;
53052;SDS011;38934;52.690;6.184;2023-06-24T02:38:37;17.33;;;13.57;;
53052;SDS011;38934;52.690;6.184;2023-06-24T02:41:03;13.93;;;10.75;;
53052;SDS011;38934;52.690;6.184;2023-06-24T02:43:30;18.10;;;14.45;;
53052;SDS011;38934;52.690;6.184;2023-06-24T02:45:56;17.42;;;14.27;;
53052;SDS011;38934;52.690;6.184;2023-06-24T02:48:25;14.43;;;11.57;;
53052;SDS011;38934;52.690;6.184;2023-06-24T02:50:53;17.67;;;14.40;;
53052;SDS011;38934;52.690;6.184;2023-06-24T02:53:19;18.55;;;15.23;;
53052;SDS011;38934;52.690;6.184;2023-06-24T02:55:45;21.17;;;16.02;;
53052;SDS011;38934;52.690;6.184;2023-06-24T02:58:11;19.52;;;14.02;;
53052;SDS011;38934;52.690;6.184;2023-06-24T03:00:38;15.70;;;12.02;;
53052;SDS011;38934;52.690;6.184;2023-06-24T03:03:04;19.00;;;13.85;;
53052;SDS011;38934;52.690;6.184;2023-06-24T03:05:31;16.95;;;13.80;;
53052;SDS011;38934;52.690;6.184;2023-06-24T03:07:58;14.05;;;10.40;;
53052;SDS011;38934;52.690;6.184;2023-06-24T03:10:27;20.60;;;15.55;;
53052;SDS011;38934;52.690;6.184;2023-06-24T03:12:53;20.20;;;15.77;;
53052;SDS011;38934;52.690;6.184;2023-06-24T03:15:18;19.05;;;14.27;;
53052;SDS011;38934;52.690;6.184;2023-06-24T03:17:44;14.95;;;12.43;;
53052;SDS011;38934;52.690;6.184;2023-06-24T03:20:10;16.75;;;12.98;;
53052;SDS011;38934;52.690;6.184;2023-06-24T03:22:36;17.92;;;13.30;;
53052;SDS011;38934;52.690;6.184;2023-06-24T03:25:02;17.17;;;13.25;;
53052;SDS011;38934;52.690;6.184;2023-06-24T03:27:28;17.17;;;14.32;;
53052;SDS011;38934;52.690;6.184;2023-06-24T03:29:53;16.63;;;13.00;;
53052;SDS011;38934;52.690;6.184;2023-06-24T03:32:19;22.63;;;16.15;;
53052;SDS011;38934;52.690;6.184;2023-06-24T03:34:45;15.68;;;13.48;;
53052;SDS011;38934;52.690;6.184;2023-06-24T03:37:11;16.02;;;13.38;;
53052;SDS011;38934;52.690;6.184;2023-06-24T03:39:36;17.10;;;12.60;;
53052;SDS011;38934;52.690;6.184;2023-06-24T03:42:02;18.23;;;13.77;;
53052;SDS011;38934;52.690;6.184;2023-06-24T03:44:28;17.55;;;14.45;;
53052;SDS011;38934;52.690;6.184;2023-06-24T03:46:54;16.67;;;14.00;;
53052;SDS011;38934;52.690;6.184;2023-06-24T03:49:19;18.17;;;13.07;;
53052;SDS011;38934;52.690;6.184;2023-06-24T03:51:45;18.27;;;13.07;;
53052;SDS011;38934;52.690;6.184;2023-06-24T03:54:11;14.25;;;11.63;;
53052;SDS011;38934;52.690;6.184;2023-06-24T03:56:36;15.35;;;12.98;;
53052;SDS011;38934;52.690;6.184;2023-06-24T03:59:03;16.23;;;13.25;;
53052;SDS011;38934;52.690;6.184;2023-06-24T04:01:28;17.60;;;13.23;;
53052;SDS011;38934;52.690;6.184;2023-06-24T04:03:57;16.77;;;13.60;;
53052;SDS011;38934;52.690;6.184;2023-06-24T04:06:23;15.55;;;13.18;;
53052;SDS011;38934;52.690;6.184;2023-06-24T04:08:48;18.05;;;13.60;;
53052;SDS011;38934;52.690;6.184;2023-06-24T04:11:17;17.45;;;13.93;;
53052;SDS011;38934;52.690;6.184;2023-06-24T04:13:43;15.52;;;12.77;;
53052;SDS011;38934;52.690;6.184;2023-06-24T04:16:10;15.70;;;13.15;;
53052;SDS011;38934;52.690;6.184;2023-06-24T04:18:36;20.08;;;14.90;;
53052;SDS011;38934;52.690;6.184;2023-06-24T04:21:04;18.60;;;14.15;;
53052;SDS011;38934;52.690;6.184;2023-06-24T04:23:32;17.95;;;15.55;;
53052;SDS011;38934;52.690;6.184;2023-06-24T04:25:58;18.52;;;14.20;;
53052;SDS011;38934;52.690;6.184;2023-06-24T04:28:24;18.73;;;13.43;;
53052;SDS011;38934;52.690;6.184;2023-06-24T04:30:49;15.55;;;12.30;;
53052;SDS011;38934;52.690;6.184;2023-06-24T04:33:15;18.75;;;14.55;;
53052;SDS011;38934;52.690;6.184;2023-06-24T04:35:40;21.35;;;15.60;;
53052;SDS011;38934;52.690;6.184;2023-06-24T04:38:06;21.50;;;17.05;;
53052;SDS011;38934;52.690;6.184;2023-06-24T04:40:32;19.55;;;15.80;;
53052;SDS011;38934;52.690;6.184;2023-06-24T04:42:57;17.05;;;14.27;;
53052;SDS011;38934;52.690;6.184;2023-06-24T04:45:23;22.48;;;15.35;;
53052;SDS011;38934;52.690;6.184;2023-06-24T04:47:48;18.42;;;14.10;;
53052;SDS011;38934;52.690;6.184;2023-06-24T04:50:14;17.30;;;13.98;;
53052;SDS011;38934;52.690;6.184;2023-06-24T04:52:40;18.70;;;15.10;;
53052;SDS011;38934;52.690;6.184;2023-06-24T04:55:06;19.92;;;14.57;;
53052;SDS011;38934;52.690;6.184;2023-06-24T04:57:32;16.55;;;12.38;;
53052;SDS011;38934;52.690;6.184;2023-06-24T04:59:59;15.23;;;12.85;;
53052;SDS011;38934;52.690;6.184;2023-06-24T05:02:25;19.73;;;14.25;;
53052;SDS011;38934;52.690;6.184;2023-06-24T05:04:51;19.25;;;15.10;;
53052;SDS011;38934;52.690;6.184;2023-06-24T05:07:17;18.35;;;13.43;;
53052;SDS011;38934;52.690;6.184;2023-06-24T05:09:43;16.88;;;13.88;;
53052;SDS011;38934;52.690;6.184;2023-06-24T05:12:11;17.08;;;14.02;;
53052;SDS011;38934;52.690;6.184;2023-06-24T05:14:37;18.95;;;13.80;;
53052;SDS011;38934;52.690;6.184;2023-06-24T05:17:03;15.45;;;13.63;;
53052;SDS011;38934;52.690;6.184;2023-06-24T05:19:29;13.77;;;10.73;;
53052;SDS011;38934;52.690;6.184;2023-06-24T05:21:55;13.60;;;11.20;;
53052;SDS011;38934;52.690;6.184;2023-06-24T05:24:20;16.35;;;12.32;;
53052;SDS011;38934;52.690;6.184;2023-06-24T05:26:49;12.82;;;10.95;;
53052;SDS011;38934;52.690;6.184;2023-06-24T05:29:16;12.05;;;10.65;;
53052;SDS011;38934;52.690;6.184;2023-06-24T05:31:42;13.70;;;11.82;;
53052;SDS011;38934;52.690;6.184;2023-06-24T05:34:08;14.23;;;11.65;;
53052;SDS011;38934;52.690;6.184;2023-06-24T05:36:34;15.35;;;11.88;;
53052;SDS011;38934;52.690;6.184;2023-06-24T05:38:59;16.50;;;12.38;;
53052;SDS011;38934;52.690;6.184;2023-06-24T05:41:26;14.27;;;11.82;;
53052;SDS011;38934;52.690;6.184;2023-06-24T05:44:01;16.73;;;12.50;;
53052;SDS011;38934;52.690;6.184;2023-06-24T05:46:28;12.30;;;10.77;;
53052;SDS011;38934;52.690;6.184;2023-06-24T05:48:53;12.30;;;10.95;;
53052;SDS011;38934;52.690;6.184;2023-06-24T05:51:19;13.05;;;10.65;;
53052;SDS011;38934;52.690;6.184;2023-06-24T05:53:45;15.35;;;12.13;;
53052;SDS011;38934;52.690;6.184;2023-06-24T05:56:10;13.73;;;11.07;;
53052;SDS011;38934;52.690;6.184;2023-06-24T05:58:36;12.05;;;10.05;;
53052;SDS011;38934;52.690;6.184;2023-06-24T06:01:02;11.30;;;9.88;;
53052;SDS011;38934;52.690;6.184;2023-06-24T06:03:28;10.90;;;9.27;;
53052;SDS011;38934;52.690;6.184;2023-06-24T06:05:53;9.98;;;8.73;;
53052;SDS011;38934;52.690;6.184;2023-06-24T06:08:19;10.25;;;9.25;;
53052;SDS011;38934;52.690;6.184;2023-06-24T06:10:44;10.95;;;9.30;;
53052;SDS011;38934;52.690;6.184;2023-06-24T06:13:10;9.82;;;8.82;;
53052;SDS011;38934;52.690;6.184;2023-06-24T06:15:35;11.93;;;9.77;;
53052;SDS011;38934;52.690;6.184;2023-06-24T06:18:01;11.65;;;9.50;;
53052;SDS011;38934;52.690;6.184;2023-06-24T06:20:27;12.05;;;9.57;;
53052;SDS011;38934;52.690;6.184;2023-06-24T06:22:52;9.95;;;7.75;;
53052;SDS011;38934;52.690;6.184;2023-06-24T06:25:18;10.07;;;7.93;;
53052;SDS011;38934;52.690;6.184;2023-06-24T06:27:43;9.90;;;8.07;;
53052;SDS011;38934;52.690;6.184;2023-06-24T06:30:09;10.95;;;8.27;;
53052;SDS011;38934;52.690;6.184;2023-06-24T06:32:35;11.88;;;7.72;;
53052;SDS011;38934;52.690;6.184;2023-06-24T06:35:01;9.00;;;8.02;;
53052;SDS011;38934;52.690;6.184;2023-06-24T06:37:27;9.13;;;8.23;;
53052;SDS011;38934;52.690;6.184;2023-06-24T06:39:52;8.57;;;7.70;;
53052;SDS011;38934;52.690;6.184;2023-06-24T06:42:18;9.73;;;8.73;;
53052;SDS011;38934;52.690;6.184;2023-06-24T06:44:43;8.00;;;7.15;;
53052;SDS011;38934;52.690;6.184;2023-06-24T06:47:10;11.95;;;8.93;;
53052;SDS011;38934;52.690;6.184;2023-06-24T06:49:35;8.27;;;7.30;;
53052;SDS011;38934;52.690;6.184;2023-06-24T06:52:01;8.93;;;7.72;;
53052;SDS011;38934;52.690;6.184;2023-06-24T06:54:27;8.98;;;7.72;;
53052;SDS011;38934;52.690;6.184;2023-06-24T06:56:52;8.10;;;7.05;;
53052;SDS011;38934;52.690;6.184;2023-06-24T06:59:18;7.72;;;6.18;;
53052;SDS011;38934;52.690;6.184;2023-06-24T07:01:44;6.28;;;5.65;;
53052;SDS011;38934;52.690;6.184;2023-06-24T07:04:09;6.82;;;5.70;;
53052;SDS011;38934;52.690;6.184;2023-06-24T07:06:35;7.10;;;5.80;;
53052;SDS011;38934;52.690;6.184;2023-06-24T07:09:01;7.85;;;5.45;;
53052;SDS011;38934;52.690;6.184;2023-06-24T07:11:26;5.63;;;5.05;;
53052;SDS011;38934;52.690;6.184;2023-06-24T07:13:52;6.28;;;5.10;;
53052;SDS011;38934;52.690;6.184;2023-06-24T07:16:17;6.40;;;5.05;;
53052;SDS011;38934;52.690;6.184;2023-06-24T07:18:43;6.05;;;5.00;;
53052;SDS011;38934;52.690;6.184;2023-06-24T07:21:09;6.40;;;5.10;;
53052;SDS011;38934;52.690;6.184;2023-06-24T07:23:35;6.18;;;4.80;;
53052;SDS011;38934;52.690;6.184;2023-06-24T07:26:00;7.60;;;5.47;;
53052;SDS011;38934;52.690;6.184;2023-06-24T07:28:26;6.50;;;4.93;;
53052;SDS011;38934;52.690;6.184;2023-06-24T07:30:51;7.15;;;4.97;;
53052;SDS011;38934;52.690;6.184;2023-06-24T07:33:17;7.95;;;5.32;;
53052;SDS011;38934;52.690;6.184;2023-06-24T07:35:43;7.25;;;5.88;;
53052;SDS011;38934;52.690;6.184;2023-06-24T07:38:08;8.55;;;5.80;;
53052;SDS011;38934;52.690;6.184;2023-06-24T07:40:34;8.93;;;5.85;;
53052;SDS011;38934;52.690;6.184;2023-06-24T07:42:59;8.07;;;5.43;;
53052;SDS011;38934;52.690;6.184;2023-06-24T07:45:25;6.22;;;5.40;;
53052;SDS011;38934;52.690;6.184;2023-06-24T07:47:51;7.55;;;6.38;;
53052;SDS011;38934;52.690;6.184;2023-06-24T07:50:16;9.05;;;6.50;;
53052;SDS011;38934;52.690;6.184;2023-06-24T07:52:42;8.57;;;5.68;;
53052;SDS011;38934;52.690;6.184;2023-06-24T07:55:08;10.55;;;6.60;;
53052;SDS011;38934;52.690;6.184;2023-06-24T07:57:33;6.28;;;5.47;;
53052;SDS011;38934;52.690;6.184;2023-06-24T07:59:59;10.30;;;6.90;;
53052;SDS011;38934;52.690;6.184;2023-06-24T08:02:25;7.82;;;6.15;;
53052;SDS011;38934;52.690;6.184;2023-06-24T08:04:51;8.52;;;5.72;;
53052;SDS011;38934;52.690;6.184;2023-06-24T08:07:17;6.30;;;5.35;;
53052;SDS011;38934;52.690;6.184;2023-06-24T08:09:42;5.88;;;5.25;;
53052;SDS011;38934;52.690;6.184;2023-06-24T08:12:08;8.32;;;5.68;;
53052;SDS011;38934;52.690;6.184;2023-06-24T08:14:34;6.97;;;5.40;;
53052;SDS011;38934;52.690;6.184;2023-06-24T08:17:00;6.65;;;5.60;;
53052;SDS011;38934;52.690;6.184;2023-06-24T08:19:26;6.68;;;5.40;;
53052;SDS011;38934;52.690;6.184;2023-06-24T08:21:52;6.22;;;5.13;;
53052;SDS011;38934;52.690;6.184;2023-06-24T08:24:17;6.70;;;5.00;;
53052;SDS011;38934;52.690;6.184;2023-06-24T08:26:43;6.40;;;5.00;;
53052;SDS011;38934;52.690;6.184;2023-06-24T08:29:09;5.25;;;4.03;;
53052;SDS011;38934;52.690;6.184;2023-06-24T08:31:34;6.60;;;4.70;;
53052;SDS011;38934;52.690;6.184;2023-06-24T08:34:00;6.13;;;4.57;;
53052;SDS011;38934;52.690;6.184;2023-06-24T08:36:27;6.38;;;4.35;;
53052;SDS011;38934;52.690;6.184;2023-06-24T08:38:54;4.93;;;3.83;;
53052;SDS011;38934;52.690;6.184;2023-06-24T08:41:20;4.85;;;3.75;;
53052;SDS011;38934;52.690;6.184;2023-06-24T08:43:46;5.60;;;3.58;;
53052;SDS011;38934;52.690;6.184;2023-06-24T08:46:12;4.68;;;3.40;;
53052;SDS011;38934;52.690;6.184;2023-06-24T08:48:41;7.95;;;3.60;;
53052;SDS011;38934;52.690;6.184;2023-06-24T08:51:08;5.32;;;3.40;;
53052;SDS011;38934;52.690;6.184;2023-06-24T08:53:36;3.63;;;2.95;;
53052;SDS011;38934;52.690;6.184;2023-06-24T08:56:03;5.45;;;3.50;;
53052;SDS011;38934;52.690;6.184;2023-06-24T08:58:30;4.00;;;3.13;;
53052;SDS011;38934;52.690;6.184;2023-06-24T09:00:55;3.95;;;3.17;;
53052;SDS011;38934;52.690;6.184;2023-06-24T09:03:21;4.82;;;3.72;;
53052;SDS011;38934;52.690;6.184;2023-06-24T09:05:47;6.93;;;4.13;;
53052;SDS011;38934;52.690;6.184;2023-06-24T09:08:13;6.15;;;3.65;;
53052;SDS011;38934;52.690;6.184;2023-06-24T09:10:40;6.88;;;3.50;;
53052;SDS011;38934;52.690;6.184;2023-06-24T09:13:06;5.20;;;2.85;;
53052;SDS011;38934;52.690;6.184;2023-06-24T09:15:33;4.07;;;3.17;;
53052;SDS011;38934;52.690;6.184;2023-06-24T09:18:00;4.80;;;2.97;;
53052;SDS011;38934;52.690;6.184;2023-06-24T09:20:27;6.90;;;4.10;;
53052;SDS011;38934;52.690;6.184;2023-06-24T09:23:00;5.72;;;3.40;;
53052;SDS011;38934;52.690;6.184;2023-06-24T09:25:28;6.20;;;4.07;;
53052;SDS011;38934;52.690;6.184;2023-06-24T09:27:54;5.30;;;3.92;;
53052;SDS011;38934;52.690;6.184;2023-06-24T09:30:23;6.07;;;3.97;;
53052;SDS011;38934;52.690;6.184;2023-06-24T09:32:50;6.30;;;4.03;;
53052;SDS011;38934;52.690;6.184;2023-06-24T09:35:17;6.80;;;4.05;;
53052;SDS011;38934;52.690;6.184;2023-06-24T09:38:06;6.45;;;3.47;;
53052;SDS011;38934;52.690;6.184;2023-06-24T09:40:31;5.57;;;4.13;;
53052;SDS011;38934;52.690;6.184;2023-06-24T09:43:01;5.35;;;3.45;;
53052;SDS011;38934;52.690;6.184;2023-06-24T09:45:28;9.27;;;7.38;;
53052;SDS011;38934;52.690;6.184;2023-06-24T09:47:55;4.90;;;3.40;;
53052;SDS011;38934;52.690;6.184;2023-06-24T09:50:21;5.88;;;3.42;;
53052;SDS011;38934;52.690;6.184;2023-06-24T09:52:48;6.45;;;3.35;;
53052;SDS011;38934;52.690;6.184;2023-06-24T09:55:15;5.75;;;3.67;;
53052;SDS011;38934;52.690;6.184;2023-06-24T09:57:44;5.00;;;3.90;;
53052;SDS011;38934;52.690;6.184;2023-06-24T10:00:12;6.22;;;4.10;;
53052;SDS011;38934;52.690;6.184;2023-06-24T10:02:42;5.07;;;4.00;;
53052;SDS011;38934;52.690;6.184;2023-06-24T10:05:09;5.97;;;4.05;;
53052;SDS011;38934;52.690;6.184;2023-06-24T10:07:35;7.03;;;4.25;;
53052;SDS011;38934;52.690;6.184;2023-06-24T10:10:04;7.88;;;4.70;;
53052;SDS011;38934;52.690;6.184;2023-06-24T10:12:30;5.97;;;4.68;;
53052;SDS011;38934;52.690;6.184;2023-06-24T10:14:57;6.00;;;4.60;;
53052;SDS011;38934;52.690;6.184;2023-06-24T10:17:23;6.75;;;4.20;;
53052;SDS011;38934;52.690;6.184;2023-06-24T10:19:51;5.68;;;4.70;;
53052;SDS011;38934;52.690;6.184;2023-06-24T10:22:17;7.07;;;4.40;;
53052;SDS011;38934;52.690;6.184;2023-06-24T10:24:47;7.63;;;4.60;;
53052;SDS011;38934;52.690;6.184;2023-06-24T10:27:20;7.60;;;4.70;;
53052;SDS011;38934;52.690;6.184;2023-06-24T10:29:50;7.20;;;4.10;;
53052;SDS011;38934;52.690;6.184;2023-06-24T10:32:18;4.50;;;3.70;;
53052;SDS011;38934;52.690;6.184;2023-06-24T10:34:47;7.00;;;4.38;;
53052;SDS011;38934;52.690;6.184;2023-06-24T10:37:31;5.13;;;3.75;;
53052;SDS011;38934;52.690;6.184;2023-06-24T10:42:33;5.88;;;4.03;;
53052;SDS011;38934;52.690;6.184;2023-06-24T10:47:37;5.38;;;3.85;;
53052;SDS011;38934;52.690;6.184;2023-06-24T10:50:04;6.00;;;3.55;;
53052;SDS011;38934;52.690;6.184;2023-06-24T10:52:31;6.63;;;4.05;;
53052;SDS011;38934;52.690;6.184;2023-06-24T10:54:58;6.03;;;4.13;;
53052;SDS011;38934;52.690;6.184;2023-06-24T10:57:24;6.72;;;4.43;;
53052;SDS011;38934;52.690;6.184;2023-06-24T10:59:54;4.90;;;3.90;;
53052;SDS011;38934;52.690;6.184;2023-06-24T11:02:21;4.80;;;3.38;;
53052;SDS011;38934;52.690;6.184;2023-06-24T11:04:48;4.90;;;3.47;;
53052;SDS011;38934;52.690;6.184;2023-06-24T11:07:19;4.10;;;3.63;;
53052;SDS011;38934;52.690;6.184;2023-06-24T11:09:52;8.30;;;4.47;;
53052;SDS011;38934;52.690;6.184;2023-06-24T11:12:27;7.63;;;4.90;;
53052;SDS011;38934;52.690;6.184;2023-06-24T11:14:57;5.78;;;3.90;;
53052;SDS011;38934;52.690;6.184;2023-06-24T11:17:24;5.43;;;3.75;;
53052;SDS011;38934;52.690;6.184;2023-06-24T11:19:52;6.35;;;4.35;;
53052;SDS011;38934;52.690;6.184;2023-06-24T11:22:18;5.53;;;4.43;;
53052;SDS011;38934;52.690;6.184;2023-06-24T11:24:44;6.45;;;4.40;;
53052;SDS011;38934;52.690;6.184;2023-06-24T11:27:09;7.38;;;3.92;;
53052;SDS011;38934;52.690;6.184;2023-06-24T11:29:35;6.03;;;4.22;;
53052;SDS011;38934;52.690;6.184;2023-06-24T11:32:06;6.30;;;4.38;;
53052;SDS011;38934;52.690;6.184;2023-06-24T11:36:58;7.35;;;4.70;;
53052;SDS011;38934;52.690;6.184;2023-06-24T11:39:34;6.93;;;4.38;;
53052;SDS011;38934;52.690;6.184;2023-06-24T11:42:00;3.88;;;3.42;;
53052;SDS011;38934;52.690;6.184;2023-06-24T11:44:25;7.10;;;4.57;;
53052;SDS011;38934;52.690;6.184;2023-06-24T11:46:51;5.40;;;4.10;;
53052;SDS011;38934;52.690;6.184;2023-06-24T11:49:17;5.55;;;4.40;;
53052;SDS011;38934;52.690;6.184;2023-06-24T11:51:47;4.53;;;3.80;;
53052;SDS011;38934;52.690;6.184;2023-06-24T11:54:14;5.68;;;3.75;;
53052;SDS011;38934;52.690;6.184;2023-06-24T11:56:48;7.22;;;4.38;;
53052;SDS011;38934;52.690;6.184;2023-06-24T11:59:19;4.63;;;3.42;;
53052;SDS011;38934;52.690;6.184;2023-06-24T12:01:57;4.97;;;3.60;;
53052;SDS011;38934;52.690;6.184;2023-06-24T12:04:30;5.57;;;3.55;;
53052;SDS011;38934;52.690;6.184;2023-06-24T12:06:56;7.30;;;4.03;;
53052;SDS011;38934;52.690;6.184;2023-06-24T12:09:23;4.70;;;3.67;;
53052;SDS011;38934;52.690;6.184;2023-06-24T12:11:49;6.20;;;4.22;;
53052;SDS011;38934;52.690;6.184;2023-06-24T12:14:15;5.38;;;3.95;;
53052;SDS011;38934;52.690;6.184;2023-06-24T12:16:42;4.85;;;4.18;;
53052;SDS011;38934;52.690;6.184;2023-06-24T12:19:07;5.97;;;3.92;;
53052;SDS011;38934;52.690;6.184;2023-06-24T12:21:34;8.38;;;4.13;;
53052;SDS011;38934;52.690;6.184;2023-06-24T12:24:00;4.80;;;4.25;;
53052;SDS011;38934;52.690;6.184;2023-06-24T12:26:27;6.38;;;4.20;;
53052;SDS011;38934;52.690;6.184;2023-06-24T12:28:55;7.05;;;4.13;;
53052;SDS011;38934;52.690;6.184;2023-06-24T12:31:21;5.20;;;3.60;;
53052;SDS011;38934;52.690;6.184;2023-06-24T12:33:47;4.22;;;3.75;;
53052;SDS011;38934;52.690;6.184;2023-06-24T12:36:13;5.40;;;3.97;;
53052;SDS011;38934;52.690;6.184;2023-06-24T12:38:39;6.05;;;3.38;;
53052;SDS011;38934;52.690;6.184;2023-06-24T12:41:05;5.93;;;3.20;;
53052;SDS011;38934;52.690;6.184;2023-06-24T12:43:31;4.88;;;3.42;;
53052;SDS011;38934;52.690;6.184;2023-06-24T12:45:57;3.65;;;3.17;;
53052;SDS011;38934;52.690;6.184;2023-06-24T12:48:23;3.80;;;3.13;;
53052;SDS011;38934;52.690;6.184;2023-06-24T12:50:49;3.67;;;2.95;;
53052;SDS011;38934;52.690;6.184;2023-06-24T12:53:18;4.50;;;3.60;;
53052;SDS011;38934;52.690;6.184;2023-06-24T12:55:44;5.07;;;3.10;;
53052;SDS011;38934;52.690;6.184;2023-06-24T12:58:09;4.80;;;3.20;;
53052;SDS011;38934;52.690;6.184;2023-06-24T13:00:35;3.83;;;3.08;;
53052;SDS011;38934;52.690;6.184;2023-06-24T13:03:01;3.90;;;3.03;;
53052;SDS011;38934;52.690;6.184;2023-06-24T13:05:26;4.65;;;3.00;;
53052;SDS011;38934;52.690;6.184;2023-06-24T13:07:52;5.60;;;3.05;;
53052;SDS011;38934;52.690;6.184;2023-06-24T13:10:17;3.85;;;3.08;;
53052;SDS011;38934;52.690;6.184;2023-06-24T13:12:43;4.43;;;2.85;;
53052;SDS011;38934;52.690;6.184;2023-06-24T13:15:09;4.07;;;3.17;;
53052;SDS011;38934;52.690;6.184;2023-06-24T13:17:35;5.90;;;3.20;;
53052;SDS011;38934;52.690;6.184;2023-06-24T13:20:01;4.30;;;2.80;;
53052;SDS011;38934;52.690;6.184;2023-06-24T13:22:29;5.68;;;3.35;;
53052;SDS011;38934;52.690;6.184;2023-06-24T13:24:55;5.60;;;3.28;;
53052;SDS011;38934;52.690;6.184;2023-06-24T13:27:20;4.53;;;3.30;;
53052;SDS011;38934;52.690;6.184;2023-06-24T13:29:46;4.78;;;3.00;;
53052;SDS011;38934;52.690;6.184;2023-06-24T13:32:12;3.70;;;2.70;;
53052;SDS011;38934;52.690;6.184;2023-06-24T13:34:38;3.42;;;3.03;;
53052;SDS011;38934;52.690;6.184;2023-06-24T13:37:04;4.60;;;3.40;;
53052;SDS011;38934;52.690;6.184;2023-06-24T13:39:29;5.13;;;2.90;;
53052;SDS011;38934;52.690;6.184;2023-06-24T13:41:56;3.55;;;2.80;;
53052;SDS011;38934;52.690;6.184;2023-06-24T13:44:22;4.22;;;3.08;;
53052;SDS011;38934;52.690;6.184;2023-06-24T13:46:48;6.43;;;3.63;;
53052;SDS011;38934;52.690;6.184;2023-06-24T13:49:15;3.92;;;2.95;;
53052;SDS011;38934;52.690;6.184;2023-06-24T13:51:41;4.28;;;3.22;;
53052;SDS011;38934;52.690;6.184;2023-06-24T13:54:07;4.75;;;3.25;;
53052;SDS011;38934;52.690;6.184;2023-06-24T13:56:33;3.58;;;2.95;;
53052;SDS011;38934;52.690;6.184;2023-06-24T13:58:59;3.50;;;3.15;;
53052;SDS011;38934;52.690;6.184;2023-06-24T14:01:25;4.45;;;3.33;;
53052;SDS011;38934;52.690;6.184;2023-06-24T14:03:53;3.65;;;2.88;;
53052;SDS011;38934;52.690;6.184;2023-06-24T14:06:20;4.47;;;3.08;;
53052;SDS011;38934;52.690;6.184;2023-06-24T14:08:47;4.32;;;2.92;;
53052;SDS011;38934;52.690;6.184;2023-06-24T14:11:13;4.60;;;2.90;;
53052;SDS011;38934;52.690;6.184;2023-06-24T14:13:39;4.20;;;3.10;;
53052;SDS011;38934;52.690;6.184;2023-06-24T14:16:04;4.80;;;3.10;;
53052;SDS011;38934;52.690;6.184;2023-06-24T14:18:30;3.42;;;3.03;;
53052;SDS011;38934;52.690;6.184;2023-06-24T14:20:57;4.63;;;3.25;;
53052;SDS011;38934;52.690;6.184;2023-06-24T14:23:26;4.85;;;3.17;;
53052;SDS011;38934;52.690;6.184;2023-06-24T14:25:52;4.28;;;3.17;;
53052;SDS011;38934;52.690;6.184;2023-06-24T14:28:18;5.95;;;3.33;;
53052;SDS011;38934;52.690;6.184;2023-06-24T14:30:44;5.60;;;3.47;;
53052;SDS011;38934;52.690;6.184;2023-06-24T14:33:11;5.85;;;3.05;;
53052;SDS011;38934;52.690;6.184;2023-06-24T14:35:37;4.47;;;3.25;;
53052;SDS011;38934;52.690;6.184;2023-06-24T14:38:03;4.70;;;3.33;;
53052;SDS011;38934;52.690;6.184;2023-06-24T14:40:28;4.63;;;3.15;;
53052;SDS011;38934;52.690;6.184;2023-06-24T14:42:54;6.00;;;3.65;;
53052;SDS011;38934;52.690;6.184;2023-06-24T14:45:20;3.90;;;3.10;;
53052;SDS011;38934;52.690;6.184;2023-06-24T14:47:45;4.43;;;3.13;;
53052;SDS011;38934;52.690;6.184;2023-06-24T14:50:11;4.07;;;3.40;;
53052;SDS011;38934;52.690;6.184;2023-06-24T14:52:36;4.28;;;3.10;;
53052;SDS011;38934;52.690;6.184;2023-06-24T14:55:02;5.25;;;3.30;;
53052;SDS011;38934;52.690;6.184;2023-06-24T14:57:28;4.18;;;3.58;;